createdAt,value
2019-05-09T00:00:38.929Z,13.28
2019-05-09T00:03:10.491Z,11.48
2019-05-09T00:05:43.943Z,11.38
2019-05-09T00:08:14.937Z,11.55
2019-05-09T00:10:46.504Z,11.33
2019-05-09T00:13:18.224Z,10.78
2019-05-09T00:15:49.784Z,10.70
2019-05-09T00:18:20.640Z,10.58
2019-05-09T00:20:53.978Z,11.22
2019-05-09T00:23:25.158Z,10.63
2019-05-09T00:25:56.467Z,10.30
2019-05-09T00:28:28.558Z,9.90
2019-05-09T00:31:03.256Z,10.55
2019-05-09T00:33:34.813Z,11.00
2019-05-09T00:36:06.684Z,9.28
2019-05-09T00:38:39.364Z,9.33
2019-05-09T00:41:10.971Z,9.05
2019-05-09T00:43:43.645Z,8.55
2019-05-09T00:46:16.482Z,9.03
2019-05-09T00:48:50.043Z,8.25
2019-05-09T00:51:23.335Z,8.75
2019-05-09T00:53:54.861Z,8.63
2019-05-09T00:56:26.480Z,7.92
2019-05-09T00:58:58.047Z,9.40
2019-05-09T01:01:29.655Z,8.43
2019-05-09T01:04:04.098Z,8.28
2019-05-09T01:06:34.411Z,6.42
2019-05-09T01:09:07.499Z,8.40
2019-05-09T01:11:39.056Z,8.38
2019-05-09T01:14:10.534Z,8.18
2019-05-09T01:16:44.017Z,19.50
2019-05-09T01:19:15.651Z,16.93
2019-05-09T01:21:47.473Z,8.20
2019-05-09T01:24:19.207Z,11.28
2019-05-09T01:26:50.504Z,9.88
2019-05-09T01:29:23.101Z,8.38
2019-05-09T01:31:56.159Z,9.90
2019-05-09T01:34:29.042Z,8.80
2019-05-09T01:37:03.343Z,7.60
2019-05-09T01:39:35.789Z,8.38
2019-05-09T01:42:08.322Z,8.68
2019-05-09T01:44:40.266Z,8.83
2019-05-09T01:47:14.014Z,9.30
2019-05-09T01:49:45.423Z,9.00
2019-05-09T01:52:18.026Z,8.73
2019-05-09T01:54:54.069Z,25.15
2019-05-09T01:57:24.940Z,33.38
2019-05-09T01:59:57.234Z,15.75
2019-05-09T02:02:28.311Z,10.40
2019-05-09T02:04:59.461Z,16.37
2019-05-09T02:07:30.690Z,14.23
2019-05-09T02:10:03.440Z,10.15
2019-05-09T02:12:35.327Z,13.62
2019-05-09T02:15:10.511Z,10.40
2019-05-09T02:17:57.352Z,9.90
2019-05-09T02:20:16.492Z,10.30
2019-05-09T02:23:06.746Z,9.73
2019-05-09T02:25:38.191Z,10.48
2019-05-09T02:28:10.049Z,10.18
2019-05-09T02:30:44.788Z,10.55
2019-05-09T02:33:14.923Z,9.90
2019-05-09T02:35:56.359Z,9.63
2019-05-09T02:38:20.078Z,10.55
2019-05-09T02:40:52.511Z,10.58
2019-05-09T02:43:25.403Z,10.05
2019-05-09T02:45:59.419Z,10.68
2019-05-09T02:48:31.539Z,10.40
2019-05-09T02:51:02.842Z,11.45
2019-05-09T02:53:34.118Z,10.50
2019-05-09T02:56:08.927Z,10.90
2019-05-09T02:58:40.219Z,11.30
2019-05-09T03:01:12.853Z,11.73
2019-05-09T03:03:54.169Z,11.08
2019-05-09T03:06:28.424Z,11.22
2019-05-09T03:08:59.577Z,11.45
2019-05-09T03:11:30.965Z,11.08
2019-05-09T03:14:03.028Z,11.60
2019-05-09T03:16:34.771Z,11.20
2019-05-09T03:19:08.773Z,11.03
2019-05-09T03:21:40.183Z,10.98
2019-05-09T03:24:11.817Z,11.08
2019-05-09T03:26:44.883Z,10.88
2019-05-09T03:29:19.083Z,10.95
2019-05-09T03:31:51.474Z,9.28
2019-05-09T03:34:22.741Z,11.68
2019-05-09T03:36:54.268Z,11.30
2019-05-09T03:39:27.633Z,10.85
2019-05-09T03:41:58.929Z,11.55
2019-05-09T03:44:30.570Z,11.83
2019-05-09T03:47:03.617Z,11.48
2019-05-09T03:49:37.374Z,11.38
2019-05-09T03:52:08.302Z,11.70
2019-05-09T03:54:39.983Z,10.80
2019-05-09T03:57:12.907Z,12.33
2019-05-09T03:59:45.056Z,12.47
2019-05-09T04:02:17.806Z,12.33
2019-05-09T04:04:49.814Z,12.05
2019-05-09T04:07:21.159Z,12.03
2019-05-09T04:09:52.527Z,11.15
2019-05-09T04:12:23.710Z,11.50
2019-05-09T04:14:55.358Z,11.73
2019-05-09T04:17:28.136Z,10.43
2019-05-09T04:19:59.747Z,10.32
2019-05-09T04:22:31.497Z,12.33
2019-05-09T04:25:02.890Z,12.20
2019-05-09T04:27:37.429Z,11.90
2019-05-09T04:30:09.827Z,12.03
2019-05-09T04:32:41.573Z,10.75
2019-05-09T04:35:13.224Z,11.88
2019-05-09T04:37:44.804Z,12.37
2019-05-09T04:40:17.804Z,12.37
2019-05-09T04:42:49.377Z,13.72
2019-05-09T04:45:22.079Z,14.07
2019-05-09T04:47:53.703Z,11.73
2019-05-09T04:50:25.092Z,13.25
2019-05-09T04:52:58.029Z,13.08
2019-05-09T04:55:31.219Z,11.68
2019-05-09T04:58:02.656Z,11.73
2019-05-09T05:00:37.639Z,11.20
2019-05-09T05:03:08.984Z,11.20
2019-05-09T05:05:40.905Z,11.40
2019-05-09T05:10:42.352Z,12.95
2019-05-09T05:13:26.752Z,11.93
2019-05-09T05:15:57.833Z,11.53
2019-05-09T05:18:30.077Z,13.85
2019-05-09T05:21:01.569Z,12.45
2019-05-09T05:23:38.068Z,12.43
2019-05-09T05:26:09.349Z,12.00
2019-05-09T05:31:12.056Z,11.75
2019-05-09T05:36:18.084Z,11.97
2019-05-09T05:38:49.466Z,16.57
2019-05-09T05:43:51.348Z,15.70
2019-05-09T05:46:24.276Z,12.00
2019-05-09T05:48:57.798Z,12.63
2019-05-09T05:51:29.958Z,11.73
2019-05-09T05:54:01.635Z,12.90
2019-05-09T05:56:33.374Z,11.30
2019-05-09T06:01:38.070Z,12.90
2019-05-09T06:04:08.770Z,12.07
2019-05-09T06:09:11.626Z,13.25
2019-05-09T06:11:43.300Z,13.38
2019-05-09T06:14:15.116Z,12.85
2019-05-09T06:16:48.320Z,12.88
2019-05-09T06:19:18.946Z,14.35
2019-05-09T06:22:09.147Z,14.33
2019-05-09T06:24:41.110Z,13.38
2019-05-09T06:27:12.943Z,13.78
2019-05-09T06:32:15.217Z,14.00
2019-05-09T06:37:38.295Z,13.33
2019-05-09T06:40:11.313Z,13.90
2019-05-09T06:42:43.106Z,14.38
2019-05-09T06:45:18.055Z,13.28
2019-05-09T06:47:51.019Z,12.60
2019-05-09T06:50:22.663Z,14.98
2019-05-09T06:52:54.451Z,12.35
2019-05-09T06:57:58.289Z,13.65
2019-05-09T07:00:32.884Z,14.53
2019-05-09T07:03:08.071Z,15.98
2019-05-09T07:05:40.069Z,18.37
2019-05-09T07:08:12.891Z,16.60
2019-05-09T07:10:44.808Z,17.10
2019-05-09T07:15:48.172Z,16.10
2019-05-09T07:18:19.676Z,16.52
2019-05-09T07:20:51.443Z,16.30
2019-05-09T07:23:23.226Z,15.18
2019-05-09T07:25:58.136Z,15.08
2019-05-09T07:28:29.530Z,14.78
2019-05-09T07:31:02.104Z,15.03
2019-05-09T07:33:34.774Z,15.20
2019-05-09T07:36:08.555Z,14.95
2019-05-09T07:38:39.617Z,15.10
2019-05-09T07:41:11.453Z,15.63
2019-05-09T07:46:15.042Z,17.42
2019-05-09T07:48:48.416Z,15.30
2019-05-09T07:51:21.591Z,15.40
2019-05-09T07:53:52.834Z,14.05
2019-05-09T07:56:24.683Z,14.28
2019-05-09T08:01:28.049Z,14.80
2019-05-09T08:03:59.819Z,15.48
2019-05-09T08:06:31.068Z,15.68
2019-05-09T08:09:02.909Z,15.10
2019-05-09T08:11:34.641Z,15.60
2019-05-09T08:14:10.453Z,13.53
2019-05-09T08:16:40.629Z,13.15
2019-05-09T08:21:42.619Z,13.20
2019-05-09T08:24:14.368Z,14.38
2019-05-09T08:29:17.856Z,13.32
2019-05-09T08:31:49.637Z,13.53
2019-05-09T08:34:21.003Z,12.82
2019-05-09T08:36:52.379Z,13.40
2019-05-09T08:39:24.071Z,13.58
2019-05-09T08:41:55.881Z,13.20
2019-05-09T08:44:30.569Z,15.98
2019-05-09T08:46:59.795Z,13.18
2019-05-09T08:49:32.707Z,14.95
2019-05-09T08:52:14.981Z,15.25
2019-05-09T08:54:40.219Z,14.18
2019-05-09T08:57:11.847Z,13.22
2019-05-09T08:59:43.102Z,13.05
2019-05-09T09:02:18.767Z,13.75
2019-05-09T09:04:48.962Z,14.00
2019-05-09T09:07:20.839Z,14.10
2019-05-09T09:09:52.417Z,15.50
2019-05-09T09:12:33.055Z,22.95
2019-05-09T09:14:58.564Z,17.35
2019-05-09T09:17:30.227Z,11.30
2019-05-09T09:20:02.038Z,11.93
2019-05-09T09:25:04.681Z,13.70
2019-05-09T09:27:38.042Z,14.45
2019-05-09T09:30:20.250Z,13.15
2019-05-09T09:32:43.335Z,11.73
2019-05-09T09:35:15.468Z,10.88
2019-05-09T09:37:51.813Z,8.13
2019-05-09T09:40:27.791Z,5.67
2019-05-09T09:46:14.780Z,4.22
2019-05-09T10:07:12.683Z,5.15
2019-05-09T10:09:44.426Z,5.57
2019-05-09T10:12:18.022Z,3.62
2019-05-09T10:14:49.864Z,2.95
2019-05-09T10:17:22.907Z,2.40
2019-05-09T10:19:55.511Z,2.08
2019-05-09T10:22:28.170Z,2.62
2019-05-09T10:25:00.220Z,2.40
2019-05-09T10:27:32.010Z,2.15
2019-05-09T10:30:03.680Z,1.70
2019-05-09T10:32:38.155Z,1.82
